Time;durP1;ratioP1;P1;durP2;ratioP2;P2;SDS_P1;SDS_P2;PMS_P1;PMS_P2;Temp;Humidity;BMP_temperature;BMP_pressure;BME280_temperature;BME280_humidity;BME280_pressure;Samples;Min_cycle;Max_cycle;Signal;HPM_P1;HPM_P2
2022/06/15 00:00:54;;;;;;;2.70;1.10;;;;;;;;;;4990526;28;20054;-67
2022/06/15 00:03:21;;;;;;;2.28;1.30;;;;;;;;;;4986110;28;20301;-67
2022/06/15 00:05:49;;;;;;;3.15;1.08;;;;;;;;;;4990563;28;20056;-67
2022/06/15 00:08:15;;;;;;;4.28;1.65;;;;;;;;;;4982338;28;20058;-67
2022/06/15 00:10:42;;;;;;;4.28;1.08;;;;;;;;;;4986959;28;20050;-68
2022/06/15 00:13:09;;;;;;;3.40;1.20;;;;;;;;;;4984876;28;20050;-67
2022/06/15 00:15:36;;;;;;;4.53;1.60;;;;;;;;;;4989757;28;20152;-67
2022/06/15 00:18:03;;;;;;;2.78;1.10;;;;;;;;;;4989238;28;20054;-67
2022/06/15 00:20:30;;;;;;;2.80;1.02;;;;;;;;;;4986937;28;20062;-67
2022/06/15 00:22:58;;;;;;;5.75;1.77;;;;;;;;;;4990781;28;20057;-67
2022/06/15 00:25:24;;;;;;;8.95;2.15;;;;;;;;;;4984275;28;20078;-67
2022/06/15 00:27:51;;;;;;;1.75;1.08;;;;;;;;;;4989829;28;20047;-67
2022/06/15 00:30:21;;;;;;;2.80;1.30;;;;;;;;;;4989900;28;20073;-67
2022/06/15 00:32:47;;;;;;;4.88;1.30;;;;;;;;;;4992478;28;20050;-67
2022/06/15 00:35:16;;;;;;;6.90;1.60;;;;;;;;;;4984902;28;20133;-67
2022/06/15 00:37:43;;;;;;;3.92;1.40;;;;;;;;;;4992561;28;20048;-67
2022/06/15 00:40:11;;;;;;;3.88;1.23;;;;;;;;;;4988900;28;20048;-67
2022/06/15 00:42:38;;;;;;;4.90;1.33;;;;;;;;;;4986690;28;21077;-67
2022/06/15 00:45:05;;;;;;;3.03;1.27;;;;;;;;;;4975684;28;20057;-68
2022/06/15 00:47:34;;;;;;;4.32;1.20;;;;;;;;;;4989008;28;20058;-67
2022/06/15 00:50:02;;;;;;;1.58;1.10;;;;;;;;;;4974754;28;20057;-67
2022/06/15 00:52:32;;;;;;;1.92;1.20;;;;;;;;;;4992593;28;20061;-67
2022/06/15 00:55:00;;;;;;;4.93;1.33;;;;;;;;;;4988496;28;20046;-68
2022/06/15 00:57:29;;;;;;;2.88;1.25;;;;;;;;;;4992913;28;20077;-68
2022/06/15 00:59:56;;;;;;;3.13;1.25;;;;;;;;;;4986977;28;20085;-68
2022/06/15 01:02:23;;;;;;;6.07;1.25;;;;;;;;;;4988702;28;20383;-68
2022/06/15 01:04:54;;;;;;;3.88;1.15;;;;;;;;;;4984109;28;20100;-68
2022/06/15 01:07:28;;;;;;;2.83;1.10;;;;;;;;;;4971217;28;20058;-68
2022/06/15 01:10:01;;;;;;;3.08;1.20;;;;;;;;;;4972080;28;20057;-68
2022/06/15 01:12:36;;;;;;;1.85;1.20;;;;;;;;;;4988337;28;20113;-68
2022/06/15 01:15:09;;;;;;;2.50;1.02;;;;;;;;;;4992525;28;20073;-67
2022/06/15 01:17:40;;;;;;;2.80;1.20;;;;;;;;;;4988298;28;20080;-68
2022/06/15 01:20:16;;;;;;;2.40;1.30;;;;;;;;;;4992781;28;20050;-69
2022/06/15 01:22:55;;;;;;;3.55;1.30;;;;;;;;;;4988858;28;20127;-68
2022/06/15 01:25:35;;;;;;;4.68;1.25;;;;;;;;;;4991623;28;20131;-68
2022/06/15 01:28:14;;;;;;;4.20;1.70;;;;;;;;;;4987019;28;20050;-68
2022/06/15 01:30:46;;;;;;;1.65;1.10;;;;;;;;;;4990304;28;20054;-68
2022/06/15 01:33:17;;;;;;;3.65;1.50;;;;;;;;;;4986762;28;20080;-67
2022/06/15 01:35:47;;;;;;;7.43;1.50;;;;;;;;;;4991269;28;20100;-67
2022/06/15 01:38:21;;;;;;;1.90;1.20;;;;;;;;;;4977181;28;20063;-68
2022/06/15 01:40:54;;;;;;;2.38;1.20;;;;;;;;;;4972333;28;20058;-67
2022/06/15 01:43:22;;;;;;;2.58;1.20;;;;;;;;;;4985210;28;20060;-67
2022/06/15 01:45:51;;;;;;;3.45;1.48;;;;;;;;;;4972762;28;20054;-67
2022/06/15 01:48:18;;;;;;;3.20;1.20;;;;;;;;;;4969193;28;20499;-67
2022/06/15 01:50:47;;;;;;;1.55;1.00;;;;;;;;;;4972691;28;20058;-68
2022/06/15 01:53:15;;;;;;;2.38;1.00;;;;;;;;;;4976947;28;20057;-68
2022/06/15 01:55:46;;;;;;;3.90;1.30;;;;;;;;;;4988785;28;20129;-67
2022/06/15 01:58:13;;;;;;;3.53;1.50;;;;;;;;;;4988121;28;20068;-67
2022/06/15 02:00:41;;;;;;;3.63;1.35;;;;;;;;;;4989478;28;20064;-67
2022/06/15 02:03:12;;;;;;;3.80;1.30;;;;;;;;;;4979000;28;20141;-67
2022/06/15 02:05:43;;;;;;;5.10;1.55;;;;;;;;;;4970740;28;20065;-67
2022/06/15 02:08:15;;;;;;;3.78;1.50;;;;;;;;;;4975369;28;20054;-67
2022/06/15 02:10:48;;;;;;;5.60;1.70;;;;;;;;;;4992506;28;20062;-67
2022/06/15 02:13:18;;;;;;;1.75;1.17;;;;;;;;;;4983502;28;20046;-67
2022/06/15 02:15:47;;;;;;;5.05;1.60;;;;;;;;;;4989552;28;20054;-67
2022/06/15 02:18:17;;;;;;;5.30;1.42;;;;;;;;;;4985693;28;20051;-67
2022/06/15 02:20:45;;;;;;;3.53;1.30;;;;;;;;;;4989495;28;20069;-67
2022/06/15 02:23:13;;;;;;;4.07;1.40;;;;;;;;;;4985432;28;20058;-67
2022/06/15 02:25:43;;;;;;;5.40;1.70;;;;;;;;;;4988460;28;20100;-67
2022/06/15 02:28:10;;;;;;;2.95;1.33;;;;;;;;;;4985567;28;20051;-67
2022/06/15 02:30:37;;;;;;;4.45;1.55;;;;;;;;;;4989854;28;20058;-67
2022/06/15 02:33:09;;;;;;;3.78;1.20;;;;;;;;;;4990703;28;20060;-67
2022/06/15 02:35:37;;;;;;;2.20;1.23;;;;;;;;;;4968925;28;20057;-67
2022/06/15 02:38:03;;;;;;;4.82;1.70;;;;;;;;;;4971351;28;20138;-67
2022/06/15 02:40:30;;;;;;;3.88;1.60;;;;;;;;;;4968008;28;20046;-67
2022/06/15 02:42:57;;;;;;;4.63;1.55;;;;;;;;;;4970863;28;20062;-67
2022/06/15 02:45:26;;;;;;;3.70;1.20;;;;;;;;;;4982615;28;20061;-67
2022/06/15 02:47:52;;;;;;;;;;;;;;;;;;4990712;28;20049;-67
2022/06/15 02:50:20;;;;;;;2.72;1.20;;;;;;;;;;4976713;28;19932;-67
2022/06/15 02:52:52;;;;;;;3.88;1.35;;;;;;;;;;4970903;28;20102;-67
2022/06/15 02:55:20;;;;;;;5.35;1.65;;;;;;;;;;4973723;28;20060;-67
2022/06/15 02:57:48;;;;;;;2.88;1.42;;;;;;;;;;4991505;28;20053;-67
2022/06/15 03:00:16;;;;;;;3.70;1.40;;;;;;;;;;4986362;28;20053;-66
2022/06/15 03:02:42;;;;;;;6.75;1.73;;;;;;;;;;4982545;28;20101;-67
2022/06/15 03:05:09;;;;;;;5.90;1.88;;;;;;;;;;4967442;28;20125;-67
2022/06/15 03:07:36;;;;;;;5.55;1.48;;;;;;;;;;4986960;28;20053;-67
2022/06/15 03:10:04;;;;;;;2.90;1.42;;;;;;;;;;4984100;28;20057;-67
2022/06/15 03:12:32;;;;;;;5.13;1.50;;;;;;;;;;4987238;28;20089;-67
2022/06/15 03:14:59;;;;;;;2.22;1.20;;;;;;;;;;4983091;28;20054;-67
2022/06/15 03:17:26;;;;;;;2.72;1.17;;;;;;;;;;4977133;28;20105;-67
2022/06/15 03:19:52;;;;;;;5.05;1.40;;;;;;;;;;4987850;28;20124;-68
2022/06/15 03:22:21;;;;;;;3.17;1.50;;;;;;;;;;4982873;28;20054;-67
2022/06/15 03:24:48;;;;;;;3.25;1.33;;;;;;;;;;4986436;28;20500;-67
2022/06/15 03:27:18;;;;;;;1.90;1.00;;;;;;;;;;4978297;28;20089;-67
2022/06/15 03:29:45;;;;;;;3.05;1.10;;;;;;;;;;4987552;28;20057;-67
2022/06/15 03:32:15;;;;;;;3.58;1.35;;;;;;;;;;4983789;28;20058;-67
2022/06/15 03:34:41;;;;;;;4.18;1.42;;;;;;;;;;4986774;28;20096;-67
2022/06/15 03:37:09;;;;;;;7.10;1.70;;;;;;;;;;4983299;28;20147;-67
2022/06/15 03:39:36;;;;;;;3.43;1.60;;;;;;;;;;4986858;28;20112;-67
2022/06/15 03:42:11;;;;;;;7.18;2.05;;;;;;;;;;4975976;28;20058;-67
2022/06/15 03:44:40;;;;;;;2.53;1.20;;;;;;;;;;4977397;28;20050;-68
2022/06/15 03:47:08;;;;;;;3.17;1.60;;;;;;;;;;4983695;28;20085;-68
2022/06/15 03:49:35;;;;;;;2.33;1.20;;;;;;;;;;4987505;28;20046;-68
2022/06/15 03:52:02;;;;;;;2.75;1.73;;;;;;;;;;4985317;28;20065;-68
2022/06/15 03:54:28;;;;;;;2.17;1.20;;;;;;;;;;4989267;28;20604;-68
2022/06/15 03:56:55;;;;;;;2.72;1.30;;;;;;;;;;4984571;28;20050;-68
2022/06/15 03:59:22;;;;;;;2.42;1.15;;;;;;;;;;4990778;28;20108;-68
2022/06/15 04:01:50;;;;;;;2.40;1.05;;;;;;;;;;4976148;28;20059;-69
2022/06/15 04:04:16;;;;;;;3.83;1.40;;;;;;;;;;4987935;28;20046;-68
2022/06/15 04:06:44;;;;;;;2.28;1.17;;;;;;;;;;4990797;28;20062;-68
2022/06/15 04:09:09;;;;;;;5.18;1.50;;;;;;;;;;4985259;28;20051;-68
2022/06/15 04:14:21;;;;;;;3.90;1.40;;;;;;;;;;4986441;28;20164;-68
2022/06/15 04:16:53;;;;;;;2.63;1.30;;;;;;;;;;4992954;28;20062;-68
2022/06/15 04:19:21;;;;;;;3.88;1.40;;;;;;;;;;4986341;28;20050;-69
2022/06/15 04:21:48;;;;;;;3.08;1.20;;;;;;;;;;4990209;28;20060;-68
2022/06/15 04:24:15;;;;;;;1.33;0.98;;;;;;;;;;4986263;28;20065;-68
2022/06/15 04:26:42;;;;;;;6.55;1.65;;;;;;;;;;4989555;28;20054;-68
2022/06/15 04:29:08;;;;;;;3.65;1.40;;;;;;;;;;4989220;28;20064;-68
2022/06/15 04:31:35;;;;;;;3.28;1.48;;;;;;;;;;4993289;28;20137;-68
2022/06/15 04:34:02;;;;;;;2.72;1.40;;;;;;;;;;5006493;28;20050;-68
2022/06/15 04:36:30;;;;;;;2.85;1.33;;;;;;;;;;4993516;28;20066;-68
2022/06/15 04:38:57;;;;;;;5.65;2.00;;;;;;;;;;4986196;28;20057;-68
2022/06/15 04:41:23;;;;;;;4.72;1.40;;;;;;;;;;4989862;28;20515;-68
2022/06/15 04:43:50;;;;;;;2.65;1.00;;;;;;;;;;4985645;28;20056;-68
2022/06/15 04:46:17;;;;;;;9.30;1.52;;;;;;;;;;4990082;28;20055;-69
2022/06/15 04:48:43;;;;;;;4.25;1.20;;;;;;;;;;4983929;28;20053;-69
2022/06/15 04:51:11;;;;;;;3.67;1.30;;;;;;;;;;4975589;28;20053;-69
2022/06/15 04:53:39;;;;;;;2.15;1.15;;;;;;;;;;4993840;28;20054;-69
2022/06/15 04:56:06;;;;;;;2.60;1.15;;;;;;;;;;4982567;28;20117;-69
2022/06/15 04:58:32;;;;;;;3.30;1.48;;;;;;;;;;4977120;28;20058;-68
2022/06/15 05:00:59;;;;;;;4.70;1.58;;;;;;;;;;4968618;28;20050;-68
2022/06/15 05:03:26;;;;;;;8.82;1.48;;;;;;;;;;4972319;28;20153;-69
2022/06/15 05:05:54;;;;;;;2.88;1.20;;;;;;;;;;4969260;28;20054;-69
2022/06/15 05:08:21;;;;;;;3.08;1.17;;;;;;;;;;4971846;28;20046;-69
2022/06/15 05:10:50;;;;;;;5.68;1.20;;;;;;;;;;4968161;28;20046;-69
2022/06/15 05:13:17;;;;;;;2.22;1.02;;;;;;;;;;4955919;28;20046;-69
2022/06/15 05:15:43;;;;;;;2.83;1.40;;;;;;;;;;4969683;28;20046;-69
2022/06/15 05:18:11;;;;;;;8.80;3.97;;;;;;;;;;4974708;28;20701;-69
2022/06/15 05:20:39;;;;;;;4.38;1.83;;;;;;;;;;4970109;28;20165;-69
2022/06/15 05:23:06;;;;;;;2.67;1.67;;;;;;;;;;4979584;28;20062;-69
2022/06/15 05:25:32;;;;;;;2.65;1.35;;;;;;;;;;4979070;28;20301;-69
2022/06/15 05:28:01;;;;;;;3.30;1.35;;;;;;;;;;4974381;28;20065;-69
2022/06/15 05:30:27;;;;;;;3.25;1.35;;;;;;;;;;4973966;28;20065;-69
2022/06/15 05:32:54;;;;;;;3.03;1.35;;;;;;;;;;4982459;28;20054;-69
2022/06/15 05:35:21;;;;;;;3.40;1.25;;;;;;;;;;4978897;28;20065;-69
2022/06/15 05:37:47;;;;;;;2.53;1.27;;;;;;;;;;4971222;28;20069;-69
2022/06/15 05:40:14;;;;;;;2.20;1.20;;;;;;;;;;4981411;28;20053;-69
2022/06/15 05:42:42;;;;;;;2.65;1.45;;;;;;;;;;4969907;28;20418;-69
2022/06/15 05:45:10;;;;;;;6.57;1.50;;;;;;;;;;4983906;28;20046;-69
2022/06/15 05:47:37;;;;;;;3.20;1.50;;;;;;;;;;4983427;28;20065;-70
2022/06/15 05:50:04;;;;;;;1.92;1.27;;;;;;;;;;4988443;28;20062;-70
2022/06/15 05:52:31;;;;;;;4.10;1.38;;;;;;;;;;4975768;28;20058;-70
2022/06/15 05:54:58;;;;;;;6.30;1.70;;;;;;;;;;4971882;28;20050;-70
2022/06/15 05:57:25;;;;;;;2.65;1.10;;;;;;;;;;4967334;28;20336;-69
2022/06/15 05:59:53;;;;;;;3.78;1.70;;;;;;;;;;4970851;28;20058;-70
2022/06/15 06:02:22;;;;;;;5.53;1.60;;;;;;;;;;4967008;28;20069;-70
2022/06/15 06:04:51;;;;;;;3.10;1.35;;;;;;;;;;4970664;28;20066;-70
2022/06/15 06:07:18;;;;;;;2.40;1.40;;;;;;;;;;4967488;28;20054;-70
2022/06/15 06:09:45;;;;;;;3.08;1.42;;;;;;;;;;4971100;28;20054;-70
2022/06/15 06:12:12;;;;;;;3.58;1.23;;;;;;;;;;4967026;28;20058;-69
2022/06/15 06:14:38;;;;;;;2.95;1.30;;;;;;;;;;4964194;28;20054;-70
2022/06/15 06:17:06;;;;;;;5.07;1.50;;;;;;;;;;4974473;28;20053;-70
2022/06/15 06:19:34;;;;;;;6.95;2.00;;;;;;;;;;4970470;28;20295;-70
2022/06/15 06:22:01;;;;;;;4.35;1.80;;;;;;;;;;4970315;28;20062;-70
2022/06/15 06:24:28;;;;;;;9.48;1.80;;;;;;;;;;4966941;28;20058;-70
2022/06/15 06:26:58;;;;;;;4.07;1.50;;;;;;;;;;4971941;28;20533;-70
2022/06/15 06:29:30;;;;;;;4.18;1.50;;;;;;;;;;4952361;28;20058;-70
2022/06/15 06:31:57;;;;;;;4.45;1.40;;;;;;;;;;4952737;28;20086;-70
2022/06/15 06:34:24;;;;;;;3.38;1.50;;;;;;;;;;4948797;28;20061;-70
2022/06/15 06:36:52;;;;;;;2.20;1.15;;;;;;;;;;4951515;28;20055;-70
2022/06/15 06:39:20;;;;;;;1.73;1.20;;;;;;;;;;4966422;28;20046;-70
2022/06/15 06:41:47;;;;;;;6.32;1.75;;;;;;;;;;4971314;28;20152;-70
2022/06/15 06:44:14;;;;;;;5.07;1.20;;;;;;;;;;4960559;28;20105;-70
2022/06/15 10:03:32;;;;;;;5.05;1.50;;;;;;;;;;4994461;23;20053;-73
2022/06/15 10:06:18;;;;;;;6.40;1.50;;;;;;;;;;4940956;28;20055;-72
2022/06/15 10:08:45;;;;;;;6.18;1.33;;;;;;;;;;4947291;28;20572;-72
2022/06/15 10:11:16;;;;;;;6.25;1.38;;;;;;;;;;4939180;28;20137;-71
2022/06/15 10:13:43;;;;;;;4.45;1.00;;;;;;;;;;4965018;28;20066;-71
2022/06/15 10:16:19;;;;;;;3.75;1.30;;;;;;;;;;4946225;28;20066;-72
2022/06/15 10:18:49;;;;;;;3.17;1.20;;;;;;;;;;4949081;28;20055;-72
2022/06/15 10:21:19;;;;;;;3.38;1.20;;;;;;;;;;4952007;28;20069;-73
2022/06/15 10:23:51;;;;;;;5.05;1.20;;;;;;;;;;4943669;28;20054;-71
2022/06/15 10:26:27;;;;;;;3.70;1.00;;;;;;;;;;4966408;28;20055;-72
2022/06/15 10:28:54;;;;;;;2.75;1.08;;;;;;;;;;4937037;28;20089;-72
2022/06/15 10:31:25;;;;;;;5.22;1.45;;;;;;;;;;4951746;28;20063;-72
2022/06/15 10:33:55;;;;;;;4.55;1.35;;;;;;;;;;4936031;28;20057;-71
2022/06/15 10:36:23;;;;;;;2.53;1.13;;;;;;;;;;4951473;28;20051;-72
2022/06/15 10:38:52;;;;;;;3.33;1.13;;;;;;;;;;4947084;28;20094;-72
2022/06/15 10:44:04;;;;;;;2.88;1.10;;;;;;;;;;4950160;28;20054;-71
2022/06/15 10:46:48;;;;;;;7.30;1.48;;;;;;;;;;4941843;28;20062;-72
2022/06/15 10:49:16;;;;;;;2.65;1.20;;;;;;;;;;4940887;28;20102;-74
2022/06/15 10:51:49;;;;;;;7.97;1.83;;;;;;;;;;4944370;28;20109;-71
2022/06/15 10:54:22;;;;;;;4.30;1.20;;;;;;;;;;4951158;28;20228;-71
2022/06/15 11:02:26;;;;;;;5.28;1.20;;;;;;;;;;4939333;28;20066;-72
2022/06/15 11:04:58;;;;;;;2.38;1.05;;;;;;;;;;4931957;29;20058;-74
2022/06/15 11:07:30;;;;;;;4.63;1.20;;;;;;;;;;4925150;29;20059;-71
2022/06/15 11:10:07;;;;;;;2.83;1.00;;;;;;;;;;4949624;29;20058;-74
2022/06/15 11:12:36;;;;;;;5.53;1.17;;;;;;;;;;4928899;29;20066;-74
2022/06/15 11:15:05;;;;;;;2.28;0.90;;;;;;;;;;4931692;29;20055;-71
2022/06/15 11:20:23;;;;;;;2.20;0.93;;;;;;;;;;4944590;29;20129;-74
2022/06/15 11:22:51;;;;;;;4.97;1.40;;;;;;;;;;4930124;29;20048;-74
2022/06/15 11:25:22;;;;;;;6.60;1.23;;;;;;;;;;4926987;29;20055;-73
2022/06/15 11:27:51;;;;;;;4.68;1.20;;;;;;;;;;4931879;29;20039;-73
2022/06/15 11:30:21;;;;;;;6.63;1.40;;;;;;;;;;4927896;29;20073;-74
2022/06/15 11:32:52;;;;;;;7.47;1.30;;;;;;;;;;4931217;29;20059;-74
2022/06/15 11:35:33;;;;;;;3.70;1.00;;;;;;;;;;4918017;29;20058;-72
2022/06/15 11:38:07;;;;;;;5.38;1.40;;;;;;;;;;4929918;29;20055;-73
2022/06/15 11:40:36;;;;;;;3.97;1.20;;;;;;;;;;4927811;29;20089;-72
2022/06/15 11:43:10;;;;;;;3.70;1.00;;;;;;;;;;4932103;29;20051;-73
2022/06/15 11:45:42;;;;;;;3.58;1.05;;;;;;;;;;4926731;29;20051;-72
2022/06/15 11:48:12;;;;;;;5.38;1.50;;;;;;;;;;4929898;29;20050;-72
2022/06/15 11:50:42;;;;;;;5.85;1.10;;;;;;;;;;4925240;29;20062;-72
2022/06/15 11:53:16;;;;;;;4.45;1.10;;;;;;;;;;4931291;29;20257;-73
2022/06/15 11:55:44;;;;;;;5.03;1.17;;;;;;;;;;4927902;29;20138;-74
2022/06/15 11:58:20;;;;;;;4.25;1.10;;;;;;;;;;4946876;29;20058;-72
2022/06/15 12:00:51;;;;;;;4.38;1.27;;;;;;;;;;4927001;29;20075;-72
2022/06/15 12:03:27;;;;;;;5.63;1.30;;;;;;;;;;4931272;28;20059;-72
2022/06/15 12:05:59;;;;;;;2.05;0.90;;;;;;;;;;4941720;28;20126;-73
2022/06/15 12:08:32;;;;;;;10.00;1.33;;;;;;;;;;4931366;29;20074;-72
2022/06/15 12:11:01;;;;;;;3.70;1.23;;;;;;;;;;4926722;29;20055;-73
2022/06/15 12:13:35;;;;;;;4.28;1.25;;;;;;;;;;4947078;29;20055;-72
2022/06/15 12:16:05;;;;;;;5.55;1.30;;;;;;;;;;4925200;29;20309;-73
2022/06/15 12:18:40;;;;;;;2.60;1.10;;;;;;;;;;4947969;28;20043;-74
2022/06/15 12:21:12;;;;;;;2.78;1.15;;;;;;;;;;4931068;28;20177;-73
2022/06/15 12:23:43;;;;;;;2.75;1.00;;;;;;;;;;4951284;29;20115;-73
2022/06/15 12:26:27;;;;;;;3.67;1.10;;;;;;;;;;4930512;28;20051;-73
2022/06/15 12:28:58;;;;;;;6.82;1.60;;;;;;;;;;4925049;29;20057;-72
2022/06/15 12:31:31;;;;;;;3.33;1.08;;;;;;;;;;4946327;28;20051;-74
2022/06/15 12:34:01;;;;;;;3.20;1.20;;;;;;;;;;4934227;29;20061;-72
2022/06/15 12:36:33;;;;;;;7.10;1.23;;;;;;;;;;4946325;28;20055;-73
2022/06/15 12:39:06;;;;;;;3.45;1.25;;;;;;;;;;4933747;29;20050;-74
2022/06/15 12:44:20;;;;;;;2.83;1.20;;;;;;;;;;4949412;29;20066;-73
2022/06/15 12:46:48;;;;;;;5.72;1.25;;;;;;;;;;4930508;28;20063;-73
2022/06/15 12:49:22;;;;;;;2.67;1.02;;;;;;;;;;4934225;29;20062;-74
2022/06/15 12:51:53;;;;;;;2.97;1.02;;;;;;;;;;4934854;29;20114;-74
2022/06/15 12:54:25;;;;;;;3.08;1.20;;;;;;;;;;4935283;29;20087;-74
2022/06/15 12:56:57;;;;;;;2.85;1.00;;;;;;;;;;4935572;29;20051;-74
2022/06/15 12:59:30;;;;;;;5.75;1.10;;;;;;;;;;4930798;29;20047;-74
2022/06/15 13:02:02;;;;;;;4.95;1.20;;;;;;;;;;4929965;29;20047;-72
2022/06/15 13:04:36;;;;;;;3.50;1.10;;;;;;;;;;4935690;28;20055;-74
2022/06/15 13:07:18;;;;;;;2.90;0.98;;;;;;;;;;4915288;28;20121;-74
2022/06/15 13:10:00;;;;;;;3.60;0.98;;;;;;;;;;4918964;29;20062;-74
2022/06/15 13:12:34;;;;;;;2.13;1.00;;;;;;;;;;4929354;29;20055;-75
2022/06/15 13:15:00;;;;;;;2.88;0.98;;;;;;;;;;4918601;29;20063;-75
2022/06/15 13:17:29;;;;;;;7.13;1.20;;;;;;;;;;4930043;29;20623;-75
2022/06/15 13:20:03;;;;;;;5.78;1.20;;;;;;;;;;4919870;29;20062;-74
2022/06/15 13:22:32;;;;;;;2.63;1.13;;;;;;;;;;4929973;29;20093;-75
2022/06/15 13:25:07;;;;;;;2.55;1.10;;;;;;;;;;4938360;29;20070;-75
2022/06/15 13:27:37;;;;;;;8.00;1.30;;;;;;;;;;4947624;29;20062;-74
2022/06/15 13:30:19;;;;;;;3.33;1.10;;;;;;;;;;4923882;28;20051;-74
2022/06/15 13:32:54;;;;;;;2.60;1.10;;;;;;;;;;4927810;29;20078;-73
2022/06/15 13:35:22;;;;;;;4.40;1.30;;;;;;;;;;4944431;29;20055;-75
2022/06/15 13:38:04;;;;;;;1.70;1.00;;;;;;;;;;4939315;28;20043;-75
2022/06/15 13:40:49;;;;;;;3.50;1.13;;;;;;;;;;4929675;29;20050;-74
2022/06/15 13:43:17;;;;;;;3.58;1.15;;;;;;;;;;4919070;29;20055;-75
2022/06/15 13:45:44;;;;;;;;;;;;;;;;;;4946441;29;20086;-74
2022/06/15 13:48:13;;;;;;;3.88;1.20;;;;;;;;;;4920108;29;19946;-74
2022/06/15 13:50:42;;;;;;;5.57;1.45;;;;;;;;;;4929452;29;20154;-75
2022/06/15 13:53:11;;;;;;;3.72;1.00;;;;;;;;;;4937497;28;20067;-73
2022/06/15 13:55:45;;;;;;;4.93;1.10;;;;;;;;;;4929951;29;20098;-75
2022/06/15 13:58:27;;;;;;;2.10;0.98;;;;;;;;;;4922865;28;20055;-74
2022/06/15 14:01:02;;;;;;;4.03;1.00;;;;;;;;;;4947468;29;20057;-74
2022/06/15 14:03:35;;;;;;;3.13;1.10;;;;;;;;;;4938304;28;20050;-73
2022/06/15 14:06:08;;;;;;;3.63;1.40;;;;;;;;;;4943425;28;20050;-74
2022/06/15 14:08:45;;;;;;;4.30;1.40;;;;;;;;;;4967184;28;20050;-74
2022/06/15 14:11:15;;;;;;;2.08;0.90;;;;;;;;;;4938740;28;20173;-72
2022/06/15 14:13:55;;;;;;;3.80;1.05;;;;;;;;;;4945893;28;20055;-75
2022/06/15 14:16:28;;;;;;;4.50;1.00;;;;;;;;;;4941306;28;20094;-74
2022/06/15 14:18:56;;;;;;;2.70;1.08;;;;;;;;;;4948324;28;20047;-74
2022/06/15 14:21:24;;;;;;;2.60;0.88;;;;;;;;;;4939491;28;20141;-73
2022/06/15 14:23:52;;;;;;;4.13;1.10;;;;;;;;;;4945782;28;20078;-73
2022/06/15 14:26:20;;;;;;;;;;;;;;;;;;4938477;28;20105;-74
2022/06/15 14:28:57;;;;;;;2.53;1.05;;;;;;;;;;4950261;28;19933;-73
2022/06/15 14:31:25;;;;;;;5.85;1.20;;;;;;;;;;4939593;28;20057;-76
2022/06/15 14:33:53;;;;;;;2.83;1.10;;;;;;;;;;4943533;28;20074;-73
2022/06/15 14:36:22;;;;;;;2.30;1.10;;;;;;;;;;4948131;28;20078;-74
2022/06/15 14:38:54;;;;;;;2.85;1.20;;;;;;;;;;4949038;28;20054;-73
2022/06/15 14:41:22;;;;;;;5.47;1.23;;;;;;;;;;4948449;28;20109;-74
2022/06/15 14:43:51;;;;;;;3.55;1.27;;;;;;;;;;4948283;28;20055;-74
2022/06/15 14:46:21;;;;;;;4.05;1.10;;;;;;;;;;4948706;28;20068;-73
2022/06/15 14:48:49;;;;;;;3.30;0.90;;;;;;;;;;4956815;28;20063;-73
2022/06/15 14:51:20;;;;;;;4.25;1.10;;;;;;;;;;4947762;28;20051;-74
2022/06/15 14:53:58;;;;;;;4.47;1.20;;;;;;;;;;4964225;28;20078;-73
2022/06/15 14:56:26;;;;;;;3.53;1.25;;;;;;;;;;4961807;28;20105;-74
2022/06/15 14:59:00;;;;;;;4.10;1.10;;;;;;;;;;4936200;28;20114;-73
2022/06/15 15:01:29;;;;;;;3.97;1.00;;;;;;;;;;4949652;28;20057;-73
2022/06/15 15:04:09;;;;;;;2.00;1.00;;;;;;;;;;4943534;28;20055;-72
2022/06/15 15:06:35;;;;;;;6.43;1.10;;;;;;;;;;4958075;28;20057;-73
2022/06/15 15:09:09;;;;;;;4.18;1.02;;;;;;;;;;4963274;28;20078;-74
2022/06/15 15:11:42;;;;;;;3.40;1.08;;;;;;;;;;4938887;28;20066;-74
2022/06/15 15:14:16;;;;;;;2.75;1.17;;;;;;;;;;4948715;28;20066;-73
2022/06/15 15:16:46;;;;;;;7.85;1.33;;;;;;;;;;4939418;28;20055;-73
2022/06/15 15:19:27;;;;;;;3.13;1.08;;;;;;;;;;4948639;28;20083;-74
2022/06/15 15:21:59;;;;;;;3.05;1.10;;;;;;;;;;4945628;28;20063;-73
2022/06/15 15:24:27;;;;;;;1.63;0.98;;;;;;;;;;4942627;28;20156;-73
2022/06/15 15:26:55;;;;;;;2.17;1.05;;;;;;;;;;4945906;28;20054;-73
2022/06/15 15:35:14;;;;;;;1.88;1.05;;;;;;;;;;4956053;28;20132;-74
2022/06/15 15:37:41;;;;;;;4.53;1.30;;;;;;;;;;4948903;28;20058;-74
2022/06/15 15:40:11;;;;;;;1.65;1.00;;;;;;;;;;4957960;28;20054;-73
2022/06/15 15:42:39;;;;;;;3.10;1.05;;;;;;;;;;4963615;28;20055;-74
2022/06/15 15:45:06;;;;;;;6.40;1.30;;;;;;;;;;4936769;28;20119;-74
2022/06/15 15:47:34;;;;;;;2.92;0.95;;;;;;;;;;4949255;28;20057;-74
2022/06/15 15:50:01;;;;;;;3.15;1.27;;;;;;;;;;4946061;28;20058;-77
2022/06/15 15:52:28;;;;;;;3.22;1.17;;;;;;;;;;4960395;28;20050;-74
2022/06/15 15:54:55;;;;;;;4.35;1.25;;;;;;;;;;4952609;28;20150;-73
2022/06/15 15:57:23;;;;;;;6.90;1.77;;;;;;;;;;4941075;28;20055;-71
2022/06/15 15:59:50;;;;;;;3.78;1.60;;;;;;;;;;4966404;28;20047;-72
2022/06/15 16:02:22;;;;;;;5.60;1.33;;;;;;;;;;4937113;28;20065;-71
2022/06/15 16:04:51;;;;;;;7.68;1.58;;;;;;;;;;4952155;28;20062;-69
2022/06/15 16:07:19;;;;;;;4.30;1.50;;;;;;;;;;4938800;28;20059;-71
2022/06/15 16:09:47;;;;;;;3.30;1.50;;;;;;;;;;4950870;28;20051;-68
2022/06/15 16:12:14;;;;;;;3.13;1.42;;;;;;;;;;4952709;28;20059;-73
2022/06/15 16:14:40;;;;;;;3.20;1.40;;;;;;;;;;4940744;28;20082;-72
2022/06/15 16:17:07;;;;;;;5.32;1.23;;;;;;;;;;4951622;28;20051;-72
2022/06/15 16:19:35;;;;;;;4.55;1.27;;;;;;;;;;4945238;28;20057;-72
2022/06/15 16:22:04;;;;;;;2.15;1.23;;;;;;;;;;4952682;28;20047;-72
2022/06/15 16:24:33;;;;;;;5.60;1.50;;;;;;;;;;4944901;28;20061;-72
2022/06/15 16:27:00;;;;;;;3.72;1.70;;;;;;;;;;4951674;28;20083;-73
2022/06/15 16:29:27;;;;;;;3.17;1.55;;;;;;;;;;4942887;28;20078;-73
2022/06/15 16:31:54;;;;;;;2.90;1.40;;;;;;;;;;4967326;28;20055;-73
2022/06/15 16:34:22;;;;;;;2.22;1.27;;;;;;;;;;4944391;28;20058;-74
2022/06/15 16:36:48;;;;;;;4.17;1.20;;;;;;;;;;4951419;28;20054;-72
2022/06/15 16:39:19;;;;;;;2.88;1.20;;;;;;;;;;4945667;28;20055;-73
2022/06/15 16:41:47;;;;;;;3.17;1.20;;;;;;;;;;4967563;28;20058;-73
2022/06/15 16:44:13;;;;;;;2.05;1.15;;;;;;;;;;4933226;28;20058;-73
2022/06/15 16:46:40;;;;;;;6.38;1.17;;;;;;;;;;4969201;28;20050;-73
2022/06/15 16:49:07;;;;;;;3.05;1.20;;;;;;;;;;4948702;28;20047;-75
2022/06/15 16:51:35;;;;;;;3.15;1.20;;;;;;;;;;4948774;28;20042;-72
2022/06/15 16:54:03;;;;;;;5.25;1.20;;;;;;;;;;4948941;28;20051;-72
2022/06/15 16:56:33;;;;;;;2.47;1.15;;;;;;;;;;4963342;28;20047;-73
2022/06/15 16:59:01;;;;;;;1.95;1.25;;;;;;;;;;4940373;28;20042;-74
2022/06/15 17:01:28;;;;;;;2.55;1.38;;;;;;;;;;4938998;28;20145;-72
2022/06/15 17:03:55;;;;;;;2.97;1.17;;;;;;;;;;4944275;28;20080;-71
2022/06/15 17:06:22;;;;;;;3.07;1.40;;;;;;;;;;4960145;28;20059;-71
2022/06/15 17:08:49;;;;;;;2.80;1.27;;;;;;;;;;4951893;28;20055;-71
2022/06/15 17:11:17;;;;;;;3.07;1.30;;;;;;;;;;4945067;28;20054;-71
2022/06/15 17:13:45;;;;;;;2.78;1.13;;;;;;;;;;4968255;28;20318;-70
2022/06/15 17:16:12;;;;;;;2.92;1.30;;;;;;;;;;4944317;28;20082;-70
2022/06/15 17:18:39;;;;;;;3.80;1.20;;;;;;;;;;4949864;28;20055;-70
2022/06/15 17:21:06;;;;;;;1.63;1.10;;;;;;;;;;4961150;28;20051;-70
2022/06/15 17:23:35;;;;;;;2.20;1.02;;;;;;;;;;4951406;28;20051;-71
2022/06/15 17:26:02;;;;;;;2.40;1.13;;;;;;;;;;4943045;28;20053;-71
2022/06/15 17:28:28;;;;;;;5.13;1.20;;;;;;;;;;4949739;28;20050;-70
2022/06/15 17:30:57;;;;;;;2.63;1.20;;;;;;;;;;4943679;28;20055;-71
2022/06/15 17:33:24;;;;;;;3.85;1.48;;;;;;;;;;4949702;28;20070;-71
2022/06/15 17:35:50;;;;;;;3.42;1.08;;;;;;;;;;4950885;28;20055;-70
2022/06/15 17:38:17;;;;;;;3.40;1.13;;;;;;;;;;4960613;28;20054;-71
2022/06/15 17:40:45;;;;;;;2.92;1.40;;;;;;;;;;4949473;28;20054;-69
2022/06/15 17:43:12;;;;;;;1.52;1.00;;;;;;;;;;4942135;28;20058;-69
2022/06/15 17:45:42;;;;;;;2.88;1.25;;;;;;;;;;4950252;28;20059;-70
2022/06/15 17:48:11;;;;;;;2.55;1.20;;;;;;;;;;4961340;28;20055;-70
2022/06/15 17:50:38;;;;;;;2.55;1.20;;;;;;;;;;4950572;28;20051;-70
2022/06/15 17:53:05;;;;;;;2.45;1.15;;;;;;;;;;4962454;28;20073;-71
2022/06/15 17:55:31;;;;;;;3.20;1.20;;;;;;;;;;4950636;28;20074;-70
2022/06/15 17:57:59;;;;;;;4.70;1.20;;;;;;;;;;4945866;28;20055;-71
2022/06/15 18:00:26;;;;;;;2.42;1.08;;;;;;;;;;4950568;28;20059;-70
2022/06/15 18:02:53;;;;;;;2.20;1.10;;;;;;;;;;4938306;28;20069;-70
2022/06/15 18:05:24;;;;;;;1.63;1.08;;;;;;;;;;4948816;28;20054;-71
2022/06/15 18:07:51;;;;;;;3.00;1.30;;;;;;;;;;4942630;28;20050;-71
2022/06/15 18:10:18;;;;;;;2.53;1.33;;;;;;;;;;4949668;28;20059;-70
2022/06/15 18:12:46;;;;;;;1.98;1.00;;;;;;;;;;4942759;28;20133;-71
2022/06/15 18:15:14;;;;;;;3.20;1.35;;;;;;;;;;4948889;28;20081;-70
2022/06/15 18:17:46;;;;;;;2.53;1.20;;;;;;;;;;4944616;28;20058;-71
2022/06/15 18:20:14;;;;;;;4.55;1.30;;;;;;;;;;4949766;28;20062;-70
2022/06/15 18:22:43;;;;;;;3.22;1.20;;;;;;;;;;4948805;28;20093;-71
2022/06/15 18:25:11;;;;;;;1.40;1.05;;;;;;;;;;4946967;28;20153;-71
2022/06/15 18:27:38;;;;;;;3.80;1.20;;;;;;;;;;4967429;28;20141;-71
2022/06/15 18:30:06;;;;;;;2.88;1.23;;;;;;;;;;4942239;28;20059;-70
2022/06/15 18:32:36;;;;;;;1.15;1.00;;;;;;;;;;4951609;28;20058;-70
2022/06/15 18:35:04;;;;;;;2.92;1.25;;;;;;;;;;4944479;28;20074;-70